Time;durP1;ratioP1;P1;durP2;ratioP2;P2;SDS_P1;SDS_P2;PMS_P1;PMS_P2;Temp;Humidity;BMP_temperature;BMP_pressure;BME280_temperature;BME280_humidity;BME280_pressure;Samples;Min_cycle;Max_cycle;Signal;HPM_P1;HPM_P2
2021/09/23 09:09:49;;;;;;;13.10;5.37;;;;;;;8.49;100.00;100549.09;1826048;78;21004;-92
2021/09/23 09:12:17;;;;;;;9.73;4.42;;;;;;;8.49;100.00;100543.65;1799851;78;21032;-91
2021/09/23 09:14:47;;;;;;;11.08;6.08;;;;;;;8.46;100.00;100542.83;1827127;78;21000;-91
2021/09/23 09:17:17;;;;;;;7.95;4.65;;;;;;;8.45;100.00;100552.61;1801251;78;21055;-93
2021/09/23 09:19:57;;;;;;;11.95;5.87;;;;;;;8.44;100.00;100545.53;1827253;78;20924;-91
2021/09/23 09:22:27;;;;;;;10.25;5.12;;;;;;;8.43;100.00;100551.50;1826881;78;21040;-93
2021/09/23 09:25:09;;;;;;;14.47;7.25;;;;;;;8.45;100.00;100555.33;1800141;78;21047;-92
2021/09/23 09:27:44;;;;;;;8.63;4.47;;;;;;;8.48;100.00;100549.34;1827278;78;21027;-91
2021/09/23 09:30:22;;;;;;;9.20;4.80;;;;;;;8.49;100.00;100544.20;1830270;78;21600;-92
2021/09/23 09:32:54;;;;;;;10.25;5.65;;;;;;;8.50;100.00;100549.91;1827146;78;21048;-91
2021/09/23 09:35:25;;;;;;;12.05;5.35;;;;;;;8.51;100.00;100549.66;1827270;78;21024;-92
2021/09/23 09:37:54;;;;;;;10.03;4.67;;;;;;;8.53;100.00;100554.31;1826986;78;21502;-93
2021/09/23 09:40:23;;;;;;;11.22;5.22;;;;;;;8.54;100.00;100553.21;1827021;78;21043;-92
2021/09/23 09:42:52;;;;;;;11.88;5.10;;;;;;;8.58;100.00;100550.25;1828386;78;20964;-92
2021/09/23 09:45:25;;;;;;;10.45;4.20;;;;;;;8.61;100.00;100559.25;1826953;78;21598;-92
2021/09/23 09:47:52;;;;;;;10.25;4.62;;;;;;;8.64;100.00;100557.09;1799479;78;21035;-93
2021/09/23 09:50:30;;;;;;;7.90;3.95;;;;;;;8.70;100.00;100564.19;1826899;78;21043;-92
2021/09/23 09:53:05;;;;;;;7.70;3.35;;;;;;;8.72;100.00;100561.48;1826860;78;21004;-93
2021/09/23 09:55:39;;;;;;;6.85;3.17;;;;;;;8.74;100.00;100561.23;1827173;78;21075;-92
2021/09/23 09:58:08;;;;;;;7.92;4.05;;;;;;;8.73;100.00;100568.58;1828854;78;20938;-92
2021/09/23 10:00:35;;;;;;;7.60;3.85;;;;;;;8.76;100.00;100561.78;1827769;78;21012;-90
2021/09/23 10:03:01;;;;;;;6.47;3.83;;;;;;;8.80;100.00;100561.52;1827074;78;21478;-91
2021/09/23 10:05:30;;;;;;;8.73;4.40;;;;;;;8.81;100.00;100564.53;1826843;78;21068;-91
2021/09/23 10:07:58;;;;;;;6.45;3.92;;;;;;;8.83;100.00;100562.37;1826889;78;21563;-92
2021/09/23 10:10:28;;;;;;;8.75;3.95;;;;;;;8.89;100.00;100569.47;1827015;78;21073;-90
2021/09/23 10:12:59;;;;;;;6.85;3.10;;;;;;;8.96;100.00;100565.97;1800245;78;21028;-91
2021/09/23 10:15:27;;;;;;;6.70;4.17;;;;;;;9.03;100.00;100566.55;1828716;78;21016;-91
2021/09/23 10:18:00;;;;;;;7.95;3.92;;;;;;;9.13;100.00;100564.95;1827122;78;21031;-90
2021/09/23 10:20:25;;;;;;;8.15;3.50;;;;;;;9.21;100.00;100568.52;1826822;78;21000;-90
2021/09/23 10:22:53;;;;;;;7.35;3.75;;;;;;;9.26;100.00;100564.45;1826994;78;21020;-91
2021/09/23 10:25:26;;;;;;;5.20;3.10;;;;;;;9.33;100.00;100560.92;1826945;78;21487;-91
2021/09/23 10:30:32;;;;;;;6.37;3.83;;;;;;;9.41;100.00;100549.48;1827803;78;21011;-90
2021/09/23 10:32:58;;;;;;;7.78;3.55;;;;;;;9.48;100.00;100554.69;1827091;78;21032;-90
2021/09/23 10:35:26;;;;;;;6.37;2.95;;;;;;;9.56;100.00;100547.88;1799315;78;21047;-91
2021/09/23 10:37:58;;;;;;;20.85;9.58;;;;;;;9.66;100.00;100549.26;1827020;78;21028;-91
2021/09/23 10:40:27;;;;;;;7.67;4.95;;;;;;;9.76;100.00;100555.28;1827001;78;21091;-91
2021/09/23 10:42:59;;;;;;;8.53;3.85;;;;;;;9.82;100.00;100548.20;1799357;78;21550;-90
2021/09/23 10:45:27;;;;;;;6.23;2.60;;;;;;;9.94;100.00;100544.36;1829892;78;20950;-90
2021/09/23 10:47:59;;;;;;;6.20;3.58;;;;;;;10.12;100.00;100538.37;1827112;78;21047;-91
2021/09/23 10:50:32;;;;;;;10.43;6.70;;;;;;;10.30;100.00;100539.74;1799445;78;21016;-90
2021/09/23 10:53:00;;;;;;;7.67;4.53;;;;;;;10.45;100.00;100541.08;1827055;78;21322;-90
2021/09/23 10:55:31;;;;;;;5.25;2.75;;;;;;;10.57;100.00;100539.97;1827091;78;21419;-91
2021/09/23 10:57:58;;;;;;;5.20;2.65;;;;;;;10.67;100.00;100534.47;1827141;78;21039;-90
2021/09/23 11:00:32;;;;;;;3.67;2.60;;;;;;;10.76;100.00;100540.46;1827586;78;21047;-91
2021/09/23 11:03:09;;;;;;;5.70;3.02;;;;;;;10.80;100.00;100541.27;1827663;78;21028;-90
2021/09/23 11:05:36;;;;;;;4.65;2.40;;;;;;;10.79;100.00;100536.91;1827008;78;21071;-91
2021/09/23 11:08:10;;;;;;;5.80;3.50;;;;;;;10.79;100.00;100534.17;1827066;78;21067;-91
2021/09/23 11:10:42;;;;;;;4.00;2.65;;;;;;;10.76;100.00;100532.81;1826985;78;21059;-90
2021/09/23 11:13:12;;;;;;;4.50;2.83;;;;;;;10.73;100.00;100537.45;1826867;78;21028;-91
2021/09/23 11:15:42;;;;;;;6.67;3.98;;;;;;;10.72;100.00;100542.66;1828497;77;20996;-90
2021/09/23 11:18:10;;;;;;;22.87;13.98;;;;;;;10.73;100.00;100539.66;1828731;78;21035;-90
2021/09/23 11:20:37;;;;;;;13.13;7.37;;;;;;;10.75;100.00;100537.44;1827326;78;21098;-90
2021/09/23 11:23:08;;;;;;;10.55;7.10;;;;;;;10.76;100.00;100543.19;1799829;78;21553;-91
2021/09/23 11:25:41;;;;;;;11.20;5.72;;;;;;;10.83;100.00;100541.54;1826001;78;21044;-91
2021/09/23 11:28:08;;;;;;;7.05;3.62;;;;;;;10.89;100.00;100543.14;1818192;78;21032;-90
2021/09/23 11:30:36;;;;;;;8.40;3.92;;;;;;;10.92;100.00;100542.58;1787145;78;21000;-91
2021/09/23 11:33:08;;;;;;;8.88;5.15;;;;;;;10.99;100.00;100546.39;1817567;78;21029;-91
2021/09/23 11:35:39;;;;;;;8.48;4.78;;;;;;;11.00;100.00;100540.36;1786037;78;21039;-91
2021/09/23 11:38:07;;;;;;;7.60;4.08;;;;;;;10.94;100.00;100547.78;1816990;78;21040;-90
2021/09/23 11:40:37;;;;;;;9.75;4.47;;;;;;;10.88;100.00;100542.89;1818175;78;21048;-90
2021/09/23 11:43:07;;;;;;;9.30;4.40;;;;;;;10.75;100.00;100538.80;1787093;78;21030;-91
2021/09/23 11:45:36;;;;;;;9.50;5.30;;;;;;;10.62;100.00;100540.77;1818149;78;21060;-91
2021/09/23 11:48:16;;;;;;;9.05;4.47;;;;;;;10.51;100.00;100540.54;1817905;78;21536;-91
2021/09/23 11:51:00;;;;;;;;;;;;;;;10.42;100.00;100543.00;1820814;78;21008;-91
2021/09/23 11:53:34;;;;;;;8.90;4.55;;;;;;;10.33;100.00;100539.19;1817966;78;20195;-91
2021/09/23 11:56:05;;;;;;;10.53;5.47;;;;;;;10.25;100.00;100539.16;1786961;78;21048;-90
2021/09/23 11:58:42;;;;;;;12.53;5.62;;;;;;;10.21;100.00;100540.83;1820637;78;21027;-90
2021/09/23 12:01:10;;;;;;;10.63;5.35;;;;;;;10.21;100.00;100536.73;1787518;78;21125;-91
2021/09/23 12:03:43;;;;;;;8.53;4.17;;;;;;;10.23;100.00;100537.25;1817697;78;21064;-91
2021/09/23 12:06:16;;;;;;;10.55;4.95;;;;;;;10.28;100.00;100535.91;1786575;78;21155;-91
2021/09/23 12:08:46;;;;;;;12.28;6.22;;;;;;;10.33;100.00;100535.90;1817682;78;21087;-91
2021/09/23 12:11:15;;;;;;;10.72;5.70;;;;;;;10.42;100.00;100535.36;1818146;78;21040;-90
2021/09/23 12:13:51;;;;;;;7.60;4.62;;;;;;;10.49;100.00;100537.26;1817817;78;20948;-90
2021/09/23 12:16:23;;;;;;;14.23;8.43;;;;;;;10.60;100.00;100528.48;1818789;78;21586;-91
2021/09/23 12:18:53;;;;;;;10.85;5.85;;;;;;;10.70;100.00;100530.62;1818118;78;21039;-91
2021/09/23 12:21:23;;;;;;;7.72;4.58;;;;;;;10.79;100.00;100530.07;1786598;78;21068;-91
2021/09/23 12:23:53;;;;;;;14.35;6.15;;;;;;;10.84;100.00;100527.31;1817727;78;21024;-91
2021/09/23 12:26:26;;;;;;;10.58;5.87;;;;;;;10.92;100.00;100525.36;1817909;78;21989;-90
2021/09/23 12:29:09;;;;;;;9.18;4.85;;;;;;;11.03;100.00;100521.50;1820003;78;21028;-90
2021/09/23 12:31:44;;;;;;;7.80;3.50;;;;;;;11.10;100.00;100517.91;1816519;78;21130;-91
2021/09/23 12:34:21;;;;;;;6.53;3.80;;;;;;;11.08;100.00;100514.64;1788078;78;21559;-91
2021/09/23 12:37:01;;;;;;;6.72;4.50;;;;;;;11.02;100.00;100514.94;1817925;78;21048;-90
2021/09/23 12:39:39;;;;;;;;;;;;;;;10.92;100.00;100517.97;1792768;78;21044;-91
2021/09/23 12:42:16;;;;;;;6.33;4.05;;;;;;;10.82;100.00;100521.30;1817933;78;20219;-91
2021/09/23 12:45:14;;;;;;;6.22;3.70;;;;;;;10.70;100.00;100525.71;1818515;78;21023;-90
2021/09/23 12:47:51;;;;;;;9.05;5.65;;;;;;;10.60;100.00;100526.56;1817889;78;21043;-91
2021/09/23 12:50:24;;;;;;;8.63;5.55;;;;;;;10.52;100.00;100527.14;1817779;78;21047;-91
2021/09/23 12:52:54;;;;;;;6.97;4.50;;;;;;;10.43;100.00;100528.79;1817765;78;21060;-91
2021/09/23 12:55:31;;;;;;;9.15;5.28;;;;;;;10.35;100.00;100525.27;1817898;78;21067;-91
2021/09/23 12:58:01;;;;;;;8.10;4.35;;;;;;;10.28;100.00;100529.08;1819482;78;21016;-90
2021/09/23 13:00:38;;;;;;;5.70;3.40;;;;;;;10.22;100.00;100528.80;1817907;78;21078;-92
2021/09/23 13:03:14;;;;;;;6.40;4.10;;;;;;;10.18;100.00;100524.97;1817811;78;21534;-93
2021/09/23 13:05:46;;;;;;;8.28;4.40;;;;;;;10.16;100.00;100524.42;1818101;78;21091;-91
2021/09/23 13:08:23;;;;;;;8.28;4.37;;;;;;;10.13;100.00;100519.52;1818148;78;21022;-92
2021/09/23 13:11:06;;;;;;;5.05;3.30;;;;;;;10.15;100.00;100518.70;1817737;78;21189;-91
2021/09/23 13:13:34;;;;;;;7.40;3.25;;;;;;;10.18;100.00;100520.88;1818009;78;21079;-93
2021/09/23 13:16:03;;;;;;;6.22;3.55;;;;;;;10.25;100.00;100516.50;1816036;78;21016;-92
2021/09/23 13:18:32;;;;;;;6.55;3.47;;;;;;;10.31;100.00;100516.27;1786411;78;21539;-91
2021/09/23 13:21:08;;;;;;;5.72;3.33;;;;;;;10.38;100.00;100519.23;1817514;78;21550;-91
2021/09/23 13:23:50;;;;;;;8.33;4.00;;;;;;;10.47;100.00;100516.22;1819221;78;21586;-92
2021/09/23 13:26:21;;;;;;;5.83;3.62;;;;;;;10.56;100.00;100517.30;1818186;77;21139;-93
2021/09/23 13:28:50;;;;;;;5.40;3.47;;;;;;;10.59;100.00;100522.20;1824267;78;21060;-91
2021/09/23 13:31:22;;;;;;;5.53;3.45;;;;;;;10.64;100.00;100513.98;1824208;78;21015;-93
2021/09/23 13:33:52;;;;;;;6.55;3.80;;;;;;;10.70;100.00;100507.39;1824115;78;21555;-92
2021/09/23 13:36:19;;;;;;;7.60;3.52;;;;;;;10.80;100.00;100513.38;1824435;78;21435;-92
2021/09/23 13:38:48;;;;;;;5.53;3.02;;;;;;;10.84;100.00;100509.55;1798209;78;21808;-91
2021/09/23 13:41:20;;;;;;;;;;;;;;;10.86;100.00;100510.09;1824817;78;21115;-92
2021/09/23 13:43:49;;;;;;;6.03;2.80;;;;;;;10.87;100.00;100513.89;1798094;78;20246;-91
2021/09/23 13:46:30;;;;;;;6.17;2.95;;;;;;;10.89;100.00;100512.26;1826963;78;21051;-91
2021/09/23 13:48:58;;;;;;;5.28;2.80;;;;;;;10.90;100.00;100511.96;1824777;78;21027;-91
2021/09/23 13:51:28;;;;;;;2.87;1.80;;;;;;;10.87;100.00;100523.47;1824267;78;21043;-90
2021/09/23 13:53:56;;;;;;;2.58;1.75;;;;;;;10.83;100.00;100521.56;1825019;78;20980;-92
2021/09/23 13:56:23;;;;;;;2.62;1.60;;;;;;;10.68;100.00;100520.55;1788534;80;21095;-91
2021/09/23 13:58:52;;;;;;;2.00;1.20;;;;;;;10.52;100.00;100530.68;1772368;80;21033;-91
2021/09/23 14:01:21;;;;;;;1.80;1.15;;;;;;;10.29;100.00;100527.19;1824413;78;21087;-91
2021/09/23 14:03:48;;;;;;;1.45;0.70;;;;;;;10.03;100.00;100525.80;1788587;80;21025;-91
2021/09/23 14:06:17;;;;;;;1.32;1.22;;;;;;;9.79;100.00;100524.19;1773726;80;20962;-91
2021/09/23 14:08:45;;;;;;;1.90;1.62;;;;;;;9.59;100.00;100520.05;1772763;80;20992;-91
2021/09/23 14:11:18;;;;;;;0.80;0.70;;;;;;;9.39;100.00;100521.66;1800488;78;20929;-91
2021/09/23 14:13:55;;;;;;;1.75;0.80;;;;;;;9.21;100.00;100520.80;1824618;78;21064;-91
2021/09/23 14:16:25;;;;;;;1.30;0.80;;;;;;;9.07;100.00;100523.75;1824449;78;21032;-90
2021/09/23 14:18:54;;;;;;;2.87;1.42;;;;;;;8.97;100.00;100529.44;1824394;78;21020;-91
2021/09/23 14:21:24;;;;;;;2.62;1.85;;;;;;;8.89;100.00;100520.97;1800394;78;21070;-91
2021/09/23 14:23:52;;;;;;;21.42;9.15;;;;;;;8.82;100.00;100519.84;1824442;78;21015;-91
2021/09/23 14:26:26;;;;;;;7.60;3.62;;;;;;;8.80;100.00;100522.01;1823978;78;21000;-91
2021/09/23 14:28:59;;;;;;;7.77;2.80;;;;;;;8.77;100.00;100517.09;1823728;78;21765;-92
2021/09/23 14:31:28;;;;;;;3.60;2.60;;;;;;;8.75;100.00;100515.17;1794160;78;21196;-92
2021/09/23 14:33:55;;;;;;;4.47;2.27;;;;;;;8.71;100.00;100520.34;1795162;78;21868;-92
2021/09/23 14:36:24;;;;;;;7.97;3.30;;;;;;;8.72;100.00;100511.08;1823413;78;21008;-92
2021/09/23 14:38:52;;;;;;;5.83;2.45;;;;;;;8.72;100.00;100517.08;1823497;78;21039;-93
2021/09/23 14:41:20;;;;;;;2.33;1.40;;;;;;;8.73;100.00;100521.42;1823570;78;21066;-93
2021/09/23 14:43:48;;;;;;;2.45;1.82;;;;;;;8.73;100.00;100522.27;1823770;78;21122;-92
2021/09/23 14:46:14;;;;;;;3.08;1.82;;;;;;;8.75;100.00;100522.83;1823502;78;21032;-92
2021/09/23 14:48:42;;;;;;;2.60;1.72;;;;;;;8.79;100.00;100524.47;1824453;78;21515;-91
2021/09/23 14:51:10;;;;;;;1.60;1.22;;;;;;;8.79;100.00;100523.92;1823450;78;21103;-92
2021/09/23 14:53:38;;;;;;;2.35;1.62;;;;;;;8.80;100.00;100525.58;1823424;78;21032;-91
2021/09/23 14:56:05;;;;;;;6.33;1.60;;;;;;;8.82;100.00;100521.20;1823683;78;21091;-91
2021/09/23 14:58:33;;;;;;;1.82;1.40;;;;;;;8.85;100.00;100519.30;1824237;78;21008;-91
2021/09/23 15:01:00;;;;;;;3.50;2.08;;;;;;;8.86;100.00;100513.33;1794298;78;21087;-91
2021/09/23 15:03:27;;;;;;;7.42;3.65;;;;;;;8.86;100.00;100516.88;1806155;78;21092;-91
2021/09/23 15:05:55;;;;;;;5.75;3.10;;;;;;;8.85;100.00;100519.30;1749625;80;21286;-92
2021/09/23 15:08:24;;;;;;;2.58;1.72;;;;;;;8.87;100.00;100517.13;1744015;80;21026;-91
2021/09/23 15:10:51;;;;;;;1.67;1.57;;;;;;;8.89;100.00;100519.05;1759073;80;21547;-90
2021/09/23 15:13:19;;;;;;;1.40;1.27;;;;;;;8.89;100.00;100514.97;1746642;80;21017;-91
2021/09/23 15:15:47;;;;;;;1.98;1.47;;;;;;;8.89;100.00;100520.42;1746635;81;21037;-90
2021/09/23 15:18:15;;;;;;;2.60;1.67;;;;;;;8.89;100.00;100516.33;1731433;81;20952;-90
2021/09/23 15:20:44;;;;;;;4.53;2.33;;;;;;;8.88;100.00;100516.07;1758863;81;21576;-92
2021/09/23 15:23:12;;;;;;;6.67;4.10;;;;;;;8.88;100.00;100517.43;1758884;81;21468;-91
2021/09/23 15:25:39;;;;;;;7.25;4.08;;;;;;;8.87;100.00;100517.69;1730047;81;20960;-91
2021/09/23 15:28:07;;;;;;;7.10;2.50;;;;;;;8.87;100.00;100517.13;1738109;81;21043;-90
2021/09/23 15:30:38;;;;;;;2.98;2.30;;;;;;;8.89;100.00;100522.33;1727918;81;21131;-90
2021/09/23 15:33:07;;;;;;;6.37;2.25;;;;;;;8.88;100.00;100528.33;1733356;81;21135;-90
2021/09/23 15:35:37;;;;;;;6.20;2.55;;;;;;;8.86;100.00;100526.41;1750727;81;21020;-90
2021/09/23 15:38:04;;;;;;;5.22;2.40;;;;;;;8.82;100.00;100527.47;1749195;81;21551;-90
2021/09/23 15:40:38;;;;;;;11.80;3.67;;;;;;;8.82;100.00;100536.19;1735424;81;21032;-91
2021/09/23 15:43:06;;;;;;;8.63;3.27;;;;;;;8.79;100.00;100529.92;1756418;81;21112;-92
2021/09/23 15:45:33;;;;;;;4.33;2.17;;;;;;;8.74;100.00;100531.26;1728510;81;21032;-91
2021/09/23 15:48:01;;;;;;;4.97;2.60;;;;;;;8.69;100.00;100523.06;1729183;81;21056;-90
2021/09/23 15:50:30;;;;;;;3.40;2.15;;;;;;;8.65;100.00;100523.30;1727314;81;21029;-90
2021/09/23 15:53:01;;;;;;;2.50;1.32;;;;;;;8.64;100.00;100525.77;1731606;81;21282;-90
2021/09/23 15:55:27;;;;;;;2.35;1.52;;;;;;;8.60;100.00;100521.37;1736644;81;21056;-93
2021/09/23 15:57:54;;;;;;;2.12;1.52;;;;;;;8.55;100.00;100520.80;1737175;81;21036;-91
2021/09/23 16:00:21;;;;;;;3.85;2.20;;;;;;;8.49;100.00;100516.41;1754389;81;21084;-92
2021/09/23 16:02:54;;;;;;;2.70;1.92;;;;;;;8.49;100.00;100516.97;1755090;81;21029;-90
2021/09/23 16:05:18;;;;;;;6.45;4.03;;;;;;;8.48;100.00;100519.39;1728722;81;21418;-92
2021/09/23 16:07:45;;;;;;;7.05;3.20;;;;;;;8.43;100.00;100514.73;1758359;81;20956;-92
2021/09/23 16:10:13;;;;;;;5.37;2.05;;;;;;;8.38;100.00;100522.33;1757272;81;21024;-93
2021/09/23 16:12:41;;;;;;;6.42;2.90;;;;;;;8.35;100.00;100523.38;1744583;81;21012;-92
2021/09/23 16:15:11;;;;;;;3.98;2.85;;;;;;;8.33;100.00;100518.21;1738134;81;21035;-92
2021/09/23 16:17:40;;;;;;;5.25;2.55;;;;;;;8.28;100.00;100520.88;1732516;81;21028;-92
2021/09/23 16:20:08;;;;;;;3.40;2.40;;;;;;;8.25;100.00;100515.14;1755406;81;21048;-92
2021/09/23 16:22:37;;;;;;;3.83;2.45;;;;;;;8.21;100.00;100520.83;1743606;81;21467;-91
2021/09/23 16:25:09;;;;;;;4.03;2.77;;;;;;;8.18;100.00;100522.17;1730036;81;21076;-93
2021/09/23 16:27:38;;;;;;;4.20;2.60;;;;;;;8.14;100.00;100525.16;1764379;79;21060;-93
2021/09/23 16:30:07;;;;;;;2.58;1.77;;;;;;;8.09;100.00;100525.13;1715866;80;21045;-92
2021/09/23 16:32:33;;;;;;;2.80;1.52;;;;;;;8.05;100.00;100520.72;1732480;82;21036;-92
2021/09/23 16:35:01;;;;;;;3.27;1.77;;;;;;;8.01;100.00;100519.63;1738501;81;21048;-93
2021/09/23 16:37:27;;;;;;;3.47;1.12;;;;;;;8.00;100.00;100521.23;1733755;81;21044;-91
2021/09/23 16:39:54;;;;;;;0.90;0.88;;;;;;;7.96;100.00;100511.39;1764300;81;20937;-92
2021/09/23 16:42:22;;;;;;;1.35;0.80;;;;;;;7.94;100.00;100517.66;1762933;81;20981;-92
2021/09/23 16:44:49;;;;;;;2.35;1.20;;;;;;;7.90;100.00;100522.78;1734422;81;21962;-92
2021/09/23 16:47:16;;;;;;;1.65;0.78;;;;;;;7.89;100.00;100523.06;1732547;82;21032;-93
2021/09/23 16:49:43;;;;;;;1.07;0.88;;;;;;;7.85;100.00;100521.92;1732502;81;21105;-93
2021/09/23 16:52:10;;;;;;;1.32;1.10;;;;;;;7.82;100.00;100522.45;1734897;81;21060;-93
2021/09/23 16:54:38;;;;;;;1.90;1.20;;;;;;;7.78;100.00;100522.68;1732901;82;21455;-92
2021/09/23 16:57:07;;;;;;;2.70;1.50;;;;;;;7.74;100.00;100528.65;1738751;81;21415;-93
2021/09/23 16:59:34;;;;;;;3.50;1.65;;;;;;;7.73;100.00;100522.91;1732652;82;21024;-92
2021/09/23 17:02:03;;;;;;;2.42;1.50;;;;;;;7.69;100.00;100527.24;1753256;81;21041;-93
2021/09/23 17:04:32;;;;;;;1.25;1.00;;;;;;;7.67;100.00;100528.03;1733476;81;21151;-92
2021/09/23 17:07:01;;;;;;;1.27;0.70;;;;;;;7.66;100.00;100524.20;1732395;82;21108;-92
2021/09/23 17:09:27;;;;;;;1.22;1.10;;;;;;;7.66;100.00;100530.45;1733594;81;21096;-93
2021/09/23 17:11:56;;;;;;;1.65;1.40;;;;;;;7.64;100.00;100529.92;1778799;80;21559;-92
2021/09/23 17:14:26;;;;;;;1.50;1.12;;;;;;;7.64;100.00;100527.20;1767020;80;21077;-92
2021/09/23 17:16:54;;;;;;;1.30;1.20;;;;;;;7.64;100.00;100520.91;1744909;81;20977;-93
2021/09/23 17:19:21;;;;;;;2.83;1.50;;;;;;;7.63;100.00;100528.26;1751334;81;21084;-92
2021/09/23 17:21:49;;;;;;;2.92;1.77;;;;;;;7.63;100.00;100526.08;1727216;81;21094;-92
2021/09/23 17:24:18;;;;;;;2.60;1.62;;;;;;;7.63;100.00;100530.16;1738414;81;21088;-92
2021/09/23 17:26:45;;;;;;;1.35;0.93;;;;;;;7.62;100.00;100518.47;1744719;81;21013;-91
2021/09/23 17:29:15;;;;;;;2.05;0.90;;;;;;;7.63;100.00;100510.58;1779801;80;21045;-91
2021/09/23 17:31:44;;;;;;;1.45;0.93;;;;;;;7.61;100.00;100514.64;1780411;80;20902;-92
2021/09/23 17:34:11;;;;;;;2.05;0.85;;;;;;;7.60;100.00;100508.93;1755370;81;21108;-92
2021/09/23 17:36:38;;;;;;;4.50;1.15;;;;;;;7.59;100.00;100505.40;1737146;81;21072;-93
2021/09/23 17:39:09;;;;;;;1.87;1.35;;;;;;;7.59;100.00;100505.40;1724341;83;21076;-93
2021/09/23 17:41:38;;;;;;;2.30;0.85;;;;;;;7.57;100.00;100507.55;1719775;81;21512;-92
2021/09/23 17:44:05;;;;;;;2.77;1.47;;;;;;;7.53;100.00;100509.13;1743669;81;21052;-93
2021/09/23 17:46:34;;;;;;;8.65;1.62;;;;;;;7.48;100.00;100505.01;1755726;81;21028;-92
2021/09/23 17:49:04;;;;;;;3.02;2.17;;;;;;;7.44;100.00;100506.59;1751698;81;21472;-92
2021/09/23 17:51:31;;;;;;;4.83;1.95;;;;;;;7.40;100.00;100501.41;1741118;81;21030;-93
2021/09/23 17:54:00;;;;;;;3.67;2.45;;;;;;;7.33;100.00;100505.67;1724458;83;21024;-92
2021/09/23 17:56:27;;;;;;;5.85;1.82;;;;;;;7.26;100.00;100501.80;1725421;82;20990;-92
2021/09/23 17:58:55;;;;;;;4.00;1.40;;;;;;;7.23;100.00;100501.50;1729151;81;21053;-92
2021/09/23 18:01:23;;;;;;;2.75;1.27;;;;;;;7.18;100.00;100507.70;1773468;78;21490;-91
2021/09/23 18:03:54;;;;;;;2.40;1.20;;;;;;;7.12;100.00;100507.34;1730027;80;21008;-92
2021/09/23 18:06:23;;;;;;;1.67;0.90;;;;;;;7.04;100.00;100507.27;1762502;80;21050;-92
2021/09/23 18:08:52;;;;;;;1.07;0.78;;;;;;;6.97;100.00;100513.97;1767398;80;21083;-91
2021/09/23 18:11:19;;;;;;;0.85;0.80;;;;;;;6.93;100.00;100510.95;1770421;81;20986;-92
2021/09/23 18:13:46;;;;;;;2.22;1.05;;;;;;;6.86;100.00;100496.20;1753193;80;21021;-91
2021/09/23 18:16:16;;;;;;;0.70;0.70;;;;;;;6.77;100.00;100499.06;1722445;81;21581;-91
2021/09/23 18:18:44;;;;;;;2.30;1.25;;;;;;;6.67;100.00;100497.58;1736845;81;21096;-91
2021/09/23 18:21:13;;;;;;;0.93;0.80;;;;;;;6.58;100.00;100501.28;1772271;80;21095;-90
2021/09/23 18:23:43;;;;;;;1.42;0.65;;;;;;;6.53;100.00;100505.30;1747734;81;21631;-91
2021/09/23 18:26:13;;;;;;;0.75;0.68;;;;;;;6.50;100.00;100492.73;1754338;81;21607;-91
2021/09/23 18:28:40;;;;;;;1.80;0.60;;;;;;;6.46;100.00;100498.68;1757278;79;21077;-90
2021/09/23 18:31:09;;;;;;;1.70;0.88;;;;;;;6.41;100.00;100494.54;1754335;80;21699;-90
2021/09/23 18:33:39;;;;;;;0.93;0.72;;;;;;;6.38;100.00;100500.98;1760068;80;21496;-91
2021/09/23 18:36:06;;;;;;;0.95;0.88;;;;;;;6.34;100.00;100507.47;1787769;80;21029;-90
2021/09/23 18:38:35;;;;;;;1.77;1.10;;;;;;;6.29;100.00;100504.68;1788289;80;22315;-91
2021/09/23 18:41:02;;;;;;;0.72;0.72;;;;;;;6.25;100.00;100496.20;1756267;80;21082;-90
2021/09/23 18:43:29;;;;;;;2.40;1.17;;;;;;;6.23;100.00;100486.16;1789370;79;21850;-89
2021/09/23 18:45:57;;;;;;;0.90;0.70;;;;;;;6.24;100.00;100478.83;1782278;80;21448;-91
2021/09/23 18:48:41;;;;;;;0.82;0.72;;;;;;;6.23;100.00;100477.17;1731226;81;21017;-92
2021/09/23 18:51:19;;;;;;;1.17;0.98;;;;;;;6.19;100.00;100476.86;1763419;78;21002;-93
2021/09/23 18:53:48;;;;;;;2.00;0.95;;;;;;;6.17;100.00;100483.06;1785688;79;21354;-93
2021/09/23 18:56:17;;;;;;;1.07;0.80;;;;;;;6.17;100.00;100486.33;1764343;80;21046;-93
2021/09/23 18:58:45;;;;;;;1.02;0.90;;;;;;;6.16;100.00;100486.05;1734831;81;21140;-93
2021/09/23 19:01:14;;;;;;;1.65;1.17;;;;;;;6.14;100.00;100486.29;1770767;78;21587;-93
2021/09/23 19:03:43;;;;;;;2.33;1.52;;;;;;;6.11;100.00;100490.86;1734040;81;21119;-95
2021/09/23 19:06:10;;;;;;;2.02;1.32;;;;;;;6.08;100.00;100486.45;1742372;80;21105;-95
2021/09/23 19:08:38;;;;;;;1.92;1.25;;;;;;;6.09;100.00;100498.97;1738045;79;21084;-93
2021/09/23 19:11:05;;;;;;;0.88;0.82;;;;;;;6.07;100.00;100498.39;1761225;80;21536;-92
2021/09/23 19:13:35;;;;;;;1.30;1.00;;;;;;;6.04;100.00;100492.92;1756645;80;21045;-94
2021/09/23 19:16:04;;;;;;;2.58;1.02;;;;;;;6.02;100.00;100480.14;1762271;80;20953;-93
2021/09/23 19:18:31;;;;;;;1.35;0.85;;;;;;;6.00;100.00;100482.27;1777565;80;21519;-94
2021/09/23 19:20:59;;;;;;;4.20;1.47;;;;;;;5.97;100.00;100484.95;1770217;80;21013;-94
2021/09/23 19:23:27;;;;;;;1.27;0.90;;;;;;;5.93;100.00;100480.23;1782881;80;21060;-93
2021/09/23 19:25:56;;;;;;;3.17;1.17;;;;;;;5.87;100.00;100476.63;1772868;80;21510;-93
2021/09/23 19:28:26;;;;;;;1.55;0.95;;;;;;;5.82;100.00;100466.52;1786540;80;21070;-92
2021/09/23 19:30:54;;;;;;;1.90;0.98;;;;;;;5.79;100.00;100462.13;1762861;80;21045;-92
2021/09/23 19:33:25;;;;;;;1.90;1.20;;;;;;;5.76;100.00;100466.67;1767743;80;21516;-93
2021/09/23 19:35:52;;;;;;;1.10;0.70;;;;;;;5.71;100.00;100464.73;1757990;80;21018;-92
2021/09/23 19:38:19;;;;;;;1.07;0.98;;;;;;;5.69;100.00;100457.91;1783261;80;21025;-94
2021/09/23 19:40:46;;;;;;;2.27;1.12;;;;;;;5.69;100.00;100463.33;1767319;79;21069;-92
2021/09/23 19:43:13;;;;;;;1.47;1.07;;;;;;;5.69;100.00;100451.13;1759850;80;21583;-92
2021/09/23 19:45:40;;;;;;;1.10;0.80;;;;;;;5.69;100.00;100456.55;1776593;80;21045;-93
2021/09/23 19:48:09;;;;;;;1.02;0.70;;;;;;;5.70;100.00;100459.54;1741685;79;21044;-92
